Sereine — 1263140 — position and weather

sailwx.info

Track history (hours):
 
Tides and Currents Weather Stations Pressure Air Temp Water Temp Dewpoint Dewpoint Depression Visibility Wind Speed Wind Dir Waves Ship Positions

Sereine

Last reported at 2018-Apr-28 00:38 UTC. Time now 2018-Jun-25 00:29 UTC.
Position N 32°54' W 117°34'.
Warning: this ship's position is 57 days out of date.

Length 17 m.

Type: Sailing vessel. MMSI: 338207912.

Date/timePositionNaut miles runAvg speedWind from/ knotsBaromVisibWave heightAir tempDewpointWater temp
2018-Apr-28 00:38N 32°54' W 117°34'4 9.9
2018-Apr-28 00:12N 32°58' W 117°35'12 0.4
2018-Apr-26 18:10N 33°10' W 117°35'1 8.4
2018-Apr-26 18:00N 33°09' W 117°35'4 8.3
2018-Apr-26 17:29N 33°05' W 117°32'4 8.3
2018-Apr-26 17:00N 33°02' W 117°29'4 8.5
2018-Apr-26 16:30N 32°58' W 117°27'4 8.8
2018-Apr-26 16:00N 32°54' W 117°25'4 8.5
2018-Apr-26 15:30N 32°50' W 117°22'  
Track history (hours):
 
Tides and Currents Weather Stations Pressure Air Temp Water Temp Dewpoint Dewpoint Depression Visibility Wind Speed Wind Dir Waves Ship Positions

Sereine

Last reported at 2018-Apr-28 00:38 UTC. Time now 2018-Jun-25 00:29 UTC.
Position N 32°54' W 117°34'.
Warning: this ship's position is 57 days out of date.

Length 17 m.

Type: Sailing vessel. MMSI: 338207912.

Date/timePositionNaut miles runAvg speedWind from/ knotsBaromVisibWave heightAir tempDewpointWater temp
2018-Apr-28 00:38N 32°54' W 117°34'4 9.9
2018-Apr-28 00:12N 32°58' W 117°35'12 0.4
2018-Apr-26 18:10N 33°10' W 117°35'1 8.4
2018-Apr-26 18:00N 33°09' W 117°35'4 8.3
2018-Apr-26 17:29N 33°05' W 117°32'4 8.3
2018-Apr-26 17:00N 33°02' W 117°29'4 8.5
2018-Apr-26 16:30N 32°58' W 117°27'4 8.8
2018-Apr-26 16:00N 32°54' W 117°25'4 8.5
2018-Apr-26 15:30N 32°50' W 117°22'  

Dump ship's entire track history